CheckWX is a tool to help pilots better visualize weather data.  It is not intended as a substitute for an official pre-flight weather briefing.

02:52:22 UTC

KLNR METAR
Tri-County Regional Airport
Lone Rock, Wisconsin, USA
Current

13 mins ago

KLNR 180239Z AUTO 02010KT 1 3/4SM -SN OVC020 M06/M09 A3003 RMK AO2 P0000 T10611089
Observed
Feb-18 @ 02:39 UTC
Wind
  • 020° at 10 KTS
Visibility
1 3/4 SM
Flight Rules
IFR
Conditions
Light Snow
Cloud Levels
  • Overcast at 2,000' AGL
Temperature
-6°C / 21°F
Dewpoint
-9°C / 16°F
Humidity
80%
Altimeter
30.03" Hg
Pressure
1016.92 hPa
Current Rain
0.01"
Previous

28 mins ago

KLNR 180224Z AUTO 03010G19KT 2SM -SN BR FEW010 OVC020 M06/M08 A3003 RMK AO2 P0000 T10611083
Observed
Feb-18 @ 02:24 UTC
Wind
  • 030° at 10 KTS
  • Gusting to 19 KTS
Visibility
2 SM
Flight Rules
IFR
Conditions
Light Snow, Mist
Cloud Levels
  • Few at 1,000' AGL
  • Overcast at 2,000' AGL
Temperature
-6°C / 21°F
Dewpoint
-8°C / 18°F
Humidity
86%
Altimeter
30.03" Hg
Pressure
1016.92 hPa
Current Rain
0.01"
Previous

35 mins ago

KLNR 180217Z AUTO 05014G22KT 1 3/4SM -SN SCT013 OVC020 M06/M09 A3003 RMK AO2 P0000 T10611089
Observed
Feb-18 @ 02:17 UTC
Wind
  • 050° at 14 KTS
  • Gusting to 22 KTS
Visibility
1 3/4 SM
Flight Rules
IFR
Conditions
Light Snow
Cloud Levels
  • Scattered at 1,300' AGL
  • Overcast at 2,000' AGL
Temperature
-6°C / 21°F
Dewpoint
-9°C / 16°F
Humidity
80%
Altimeter
30.03" Hg
Pressure
1016.92 hPa
Current Rain
0.01"